SE Lincoln WX Station Historical Data
 
Daily Summary for February 25, 2024 Units:  English    Metric   Both
Daily Weekly Monthly Yearly
  Current: High: Low: Average:
Temperature: 36.1 °F 43.1 °F 34 °F 37.5 °F
Dew Point: 24 °F 26.8 °F 22.8 °F 24.5 °F
Humidity: 61% 72% 45% 60%
Wind Speed: 0mph 1.2mph 0mph 0mph
Wind Gust: 0mph 3mph - -
WindCalm - - South
Pressure: 29.78 in 29.82 in 29.77 in -
Precipitation: 0.00 in      
 
 
Tabular Data for February 25, 2024
Time Temperature Dew Point Pressure Wind Wind Speed Wind Gust Humidity Rainfall Rate (Hourly) solar
00:04 42.6 °F 22.9 °F 29.82 in Calm     45.3% 0.00 in 0 W/m2
00:09 42.6 °F 22.8 °F 29.82 in Calm     45% 0.00 in 0 W/m2
00:14 42.6 °F 22.8 °F 29.82 in Calm     45% 0.00 in 0 W/m2
00:19 42.6 °F 22.8 °F 29.82 in Calm   1 mph 45% 0.00 in 0 W/m2
00:24 42.8 °F 23 °F 29.82 in Calm     45% 0.00 in 0 W/m2
00:29 43 °F 23.1 °F 29.81 in Calm     45% 0.00 in 0 W/m2
00:34 43.1 °F 23.2 °F 29.81 in Calm     45% 0.00 in 0 W/m2
00:39 43.1 °F 23.2 °F 29.81 in Calm     45% 0.00 in 0 W/m2
00:44 43.1 °F 23.2 °F 29.81 in Calm     45% 0.00 in 0 W/m2
00:49 43 °F 23.1 °F 29.81 in Calm     45% 0.00 in 0 W/m2
00:54 42.9 °F 23 °F 29.81 in Calm     45% 0.00 in 0 W/m2
00:59 42.7 °F 22.9 °F 29.81 in Calm     45% 0.00 in 0 W/m2
01:04 42.5 °F 23.3 °F 29.81 in Calm     46.1% 0.00 in 0 W/m2
01:09 42.4 °F 23.6 °F 29.81 in Calm     47% 0.00 in 0 W/m2
01:14 42.2 °F 23.6 °F 29.81 in Calm     47.4% 0.00 in 0 W/m2
01:19 41.8 °F 23.9 °F 29.81 in Calm     48.7% 0.00 in 0 W/m2
01:24 41.3 °F 24 °F 29.80 in Calm     49.7% 0.00 in 0 W/m2
01:29 41.1 °F 23.9 °F 29.80 in Calm     50% 0.00 in 0 W/m2
01:34 41.1 °F 23.9 °F 29.80 in Calm     50% 0.00 in 0 W/m2
01:39 40.9 °F 23.7 °F 29.80 in Calm     50% 0.00 in 0 W/m2
01:44 40.6 °F 23.9 °F 29.80 in Calm     50.8% 0.00 in 0 W/m2
01:49 40.3 °F 23.8 °F 29.80 in Calm     51.5% 0.00 in 0 W/m2
01:54 40 °F 23.9 °F 29.80 in Calm     52% 0.00 in 0 W/m2
01:59 39.9 °F 23.8 °F 29.80 in Calm     52.1% 0.00 in 0 W/m2
02:04 39.8 °F 24.3 °F 29.80 in Calm     53.3% 0.00 in 0 W/m2
02:09 39.7 °F 25 °F 29.80 in Calm     55.3% 0.00 in 0 W/m2
02:14 39.5 °F 26.3 °F 29.79 in Calm     58.9% 0.00 in 0 W/m2
02:19 39.1 °F 26.8 °F 29.79 in Calm     60.9% 0.00 in 0 W/m2
02:24 38.8 °F 26.5 °F 29.79 in Calm     60.9% 0.00 in 0 W/m2
02:29 38.6 °F 25.6 °F 29.79 in Calm     59.3% 0.00 in 0 W/m2
02:34 38.4 °F 25.2 °F 29.79 in Calm     58.7% 0.00 in 0 W/m2
02:39 38.1 °F 24.7 °F 29.78 in Calm     58% 0.00 in 0 W/m2
02:44 37.9 °F 24.5 °F 29.78 in Calm     58% 0.00 in 0 W/m2
02:49 37.7 °F 23.9 °F 29.78 in Calm     57.1% 0.00 in 0 W/m2
02:54 37.5 °F 23.6 °F 29.78 in Calm     57% 0.00 in 0 W/m2
02:59 37.2 °F 23.5 °F 29.78 in Calm     57.4% 0.00 in 0 W/m2
03:04 36.9 °F 23.5 °F 29.78 in Calm     58% 0.00 in 0 W/m2
03:09 36.8 °F 23.4 °F 29.78 in Calm     58% 0.00 in 0 W/m2
03:14 36.5 °F 23.2 °F 29.78 in Calm     58% 0.00 in 0 W/m2
03:19 36.4 °F 23.3 °F 29.78 in Calm     58.6% 0.00 in 0 W/m2
03:24 36.3 °F 23.4 °F 29.78 in Calm     59.2% 0.00 in 0 W/m2
03:29 36.1 °F 23.8 °F 29.78 in Calm     60.4% 0.00 in 0 W/m2
03:34 36.2 °F 24.5 °F 29.78 in Calm     62.3% 0.00 in 0 W/m2
03:39 36.1 °F 24.9 °F 29.78 in Calm     63.3% 0.00 in 0 W/m2
03:44 36.1 °F 25.1 °F 29.78 in Calm     64% 0.00 in 0 W/m2
03:49 36 °F 25.1 °F 29.78 in Calm     64.3% 0.00 in 0 W/m2
03:54 35.9 °F 25.3 °F 29.78 in Calm     65% 0.00 in 0 W/m2
03:59 35.8 °F 25.2 °F 29.78 in Calm     65% 0.00 in 0 W/m2
04:04 35.8 °F 25.5 °F 29.78 in Calm     65.9% 0.00 in 0 W/m2
04:09 35.7 °F 25.9 °F 29.78 in Calm     67% 0.00 in 0 W/m2
04:14 35.7 °F 26.1 °F 29.78 in Calm     67.9% 0.00 in 0 W/m2
04:19 35.6 °F 25.9 °F 29.77 in Calm     67.5% 0.00 in 0 W/m2
04:24 35.6 °F 25.7 °F 29.77 in Calm     67% 0.00 in 0 W/m2
04:29 35.5 °F 25.6 °F 29.77 in Calm     67% 0.00 in 0 W/m2
04:34 35.4 °F 25.6 °F 29.77 in Calm     67% 0.00 in 0 W/m2
04:39 35.4 °F 25.5 °F 29.78 in Calm     67% 0.00 in 0 W/m2
04:44 35.3 °F 25.7 °F 29.78 in Calm     67.6% 0.00 in 0 W/m2
04:49 35.3 °F 25.8 °F 29.78 in Calm     68% 0.00 in 0 W/m2
04:54 35.2 °F 25.7 °F 29.77 in Calm     68% 0.00 in 0 W/m2
04:59 35.1 °F 25.6 °F 29.77 in Calm     68% 0.00 in 0 W/m2
05:04 34.9 °F 25.5 °F 29.77 in Calm     68% 0.00 in 0 W/m2
05:09 34.8 °F 25.3 °F 29.78 in Calm     68% 0.00 in 0 W/m2
05:14 34.7 °F 25.2 °F 29.77 in Calm     68% 0.00 in 0 W/m2
05:19 34.6 °F 25.3 °F 29.77 in Calm     68.5% 0.00 in 0 W/m2
05:24 34.5 °F 25.4 °F 29.77 in Calm     69% 0.00 in 0 W/m2
05:29 34.4 °F 25.3 °F 29.77 in Calm     69% 0.00 in 0 W/m2
05:34 34.3 °F 25.5 °F 29.77 in Calm     69.8% 0.00 in 0 W/m2
05:39 34.2 °F 25.5 °F 29.77 in Calm     70% 0.00 in 0 W/m2
05:44 34.1 °F 25.2 °F 29.77 in Calm     69.5% 0.00 in 0 W/m2
05:49 34.1 °F 25.2 °F 29.77 in Calm     69.6% 0.00 in 0 W/m2
05:54 34 °F 25.3 °F 29.77 in Calm     70% 0.00 in 0 W/m2
05:59 34 °F 25.6 °F 29.77 in Calm     70.9% 0.00 in 0 W/m2
06:04 34 °F 25.9 °F 29.77 in Calm     71.7% 0.00 in 0 W/m2
06:09 34.1 °F 26 °F 29.77 in Calm     72% 0.00 in 0 W/m2
06:14 34.1 °F 26 °F 29.77 in Calm     72% 0.00 in 0 W/m2
06:19 34.2 °F 26 °F 29.77 in Calm   1 mph 71.9% 0.00 in 0 W/m2
06:24 34.1 °F 25.6 °F 29.77 in Calm   1 mph 70.6% 0.00 in 0 W/m2
06:29 34.2 °F 25 °F 29.77 in Calm     68.7% 0.00 in 0 W/m2
06:34 34.4 °F 24.6 °F 29.77 in Calm     66.8% 0.00 in 0 W/m2
06:39 34.8 °F 24.3 °F 29.77 in South 0.4 mph 2 mph 65.3% 0.00 in 0 W/m2
06:44 35.2 °F 24.1 °F 29.77 in South 0.2 mph 2 mph 63.7% 0.00 in 0 W/m2
06:49 35.5 °F 24 °F 29.77 in South 0.1 mph 1 mph 62.4% 0.00 in 0 W/m2
06:54 35.8 °F 23.8 °F 29.77 in South 0.3 mph 2 mph 61.3% 0.00 in 0 W/m2
06:59 36.1 °F 23.8 °F 29.77 in South 1.2 mph 3 mph 60.5% 0.00 in 0 W/m2
07:04 36.3 °F 23.7 °F 29.77 in South 1.1 mph 3 mph 60% 0.00 in 0 W/m2
07:09 36.4 °F 23.5 °F 29.78 in Calm   3 mph 59% 0.00 in 7 W/m2
07:14 36.5 °F 23.6 °F 29.78 in Calm   1 mph 59% 0.00 in 11 W/m2
07:19 36.5 °F 23.5 °F 29.78 in Calm     59% 0.00 in 14 W/m2
07:24 36.4 °F 23.7 °F 29.79 in Calm     59.7% 0.00 in 18 W/m2
07:29 36.3 °F 23.8 °F 29.79 in South 0.5 mph 2 mph 60.1% 0.00 in 25 W/m2
07:34 36.2 °F 24.1 °F 29.79 in Calm     61% 0.00 in 30 W/m2
07:37 36.2 °F 24 °F 29.78 in Calm     61% 0.00 in 33 W/m2
07:42 36.1 °F 24 °F 29.78 in Calm     61% 0.00 in 44 W/m2
66th and South
Compliments of Weather Underground - 10.78 mb